Time;durP1;ratioP1;P1;durP2;ratioP2;P2;SDS_P1;SDS_P2;PMS_P1;PMS_P2;Temp;Humidity;BMP_temperature;BMP_pressure;BME280_temperature;BME280_humidity;BME280_pressure;Samples;Min_cycle;Max_cycle;Signal;HPM_P1;HPM_P2
2023/03/09 00:02:02;;;;;;;43.83;24.23;;;;;;;0.47;100.00;99115.69;4995868;28;20097;-49
2023/03/09 00:04:27;;;;;;;45.13;24.35;;;;;;;0.12;100.00;99053.41;4995739;28;20042;-50
2023/03/09 00:06:52;;;;;;;38.92;21.88;;;;;;;0.43;100.00;99093.34;4994963;28;20049;-49
2023/03/09 00:09:18;;;;;;;45.67;24.75;;;;;;;0.37;100.00;99096.91;4995497;28;20117;-48
2023/03/09 00:11:47;;;;;;;44.70;23.75;;;;;;;0.48;100.00;99115.66;4995224;28;20248;-52
2023/03/09 00:14:13;;;;;;;39.20;23.02;;;;;;;0.38;100.00;99102.94;4995596;28;20037;-47
2023/03/09 00:16:39;;;;;;;40.22;23.40;;;;;;;0.52;100.00;99125.09;4994158;28;20049;-51
2023/03/09 00:19:05;;;;;;;41.47;23.13;;;;;;;0.16;100.00;99071.44;4995226;28;20376;-52
2023/03/09 00:21:36;;;;;;;39.40;22.75;;;;;;;0.13;100.00;99050.78;4994484;28;20038;-47
2023/03/09 00:24:05;;;;;;;39.22;22.00;;;;;;;0.55;100.00;99139.72;4993803;28;20062;-53
2023/03/09 00:26:32;;;;;;;38.80;22.58;;;;;;;0.09;100.00;99064.66;4995094;28;20038;-49
2023/03/09 00:28:57;;;;;;;41.88;22.80;;;;;;;0.07;100.00;99081.09;4995271;28;20038;-52
2023/03/09 00:31:23;;;;;;;36.20;22.00;;;;;;;0.35;100.00;99129.72;5010298;28;20397;-50
2023/03/09 00:33:49;;;;;;;39.20;22.95;;;;;;;-0.02;100.00;99064.00;4995104;28;20392;-49
2023/03/09 00:36:15;;;;;;;36.53;21.27;;;;;;;0.56;100.00;99169.88;4994957;28;20039;-50
2023/03/09 00:38:41;;;;;;;39.85;21.63;;;;;;;0.52;100.00;99156.16;4993015;28;20496;-53
2023/03/09 00:41:06;;;;;;;38.10;20.65;;;;;;;0.08;100.00;99068.16;4994620;28;20049;-55
2023/03/09 00:43:31;;;;;;;41.67;22.65;;;;;;;0.48;100.00;99120.84;4994973;28;20056;-50
2023/03/09 00:45:57;;;;;;;38.30;21.65;;;;;;;0.55;100.00;99140.53;4994606;28;20411;-53
2023/03/09 00:48:22;;;;;;;42.35;24.33;;;;;;;0.53;100.00;99159.56;4994814;28;20581;-51
2023/03/09 00:50:47;;;;;;;41.00;22.75;;;;;;;0.56;100.00;99152.63;4994691;28;20497;-47
2023/03/09 00:53:13;;;;;;;42.38;23.27;;;;;;;0.47;100.00;99145.00;4994809;28;20042;-54
2023/03/09 00:55:39;;;;;;;42.17;23.48;;;;;;;0.58;100.00;99145.66;4994004;28;20038;-52
2023/03/09 00:58:04;;;;;;;39.47;23.73;;;;;;;0.58;100.00;99147.44;4993433;28;20069;-50
2023/03/09 01:00:33;;;;;;;40.05;21.90;;;;;;;0.37;100.00;99103.81;4994552;28;20041;-48
2023/03/09 01:02:59;;;;;;;34.30;19.95;;;;;;;0.17;100.00;99070.56;4994367;28;20433;-56
2023/03/09 01:05:24;;;;;;;35.40;20.25;;;;;;;0.53;100.00;99159.56;4994534;28;20520;-50
2023/03/09 01:07:49;;;;;;;33.20;18.90;;;;;;;0.58;100.00;99171.56;4992387;28;20129;-53
2023/03/09 01:10:15;;;;;;;28.02;17.38;;;;;;;0.21;100.00;99104.97;4994580;28;20035;-52
2023/03/09 01:12:41;;;;;;;30.50;17.85;;;;;;;0.40;100.00;99140.84;4994555;28;20046;-49
2023/03/09 01:15:06;;;;;;;25.77;16.05;;;;;;;0.55;100.00;99184.56;4993851;28;20034;-48
2023/03/09 01:17:32;;;;;;;26.85;16.25;;;;;;;0.57;100.00;99208.69;4992943;28;20456;-48
2023/03/09 01:19:57;;;;;;;23.92;15.35;;;;;;;0.53;100.00;99199.28;4994217;28;20068;-49
2023/03/09 01:22:22;;;;;;;23.05;14.85;;;;;;;0.50;100.00;99201.91;4994205;28;20078;-51
2023/03/09 01:24:48;;;;;;;22.08;14.40;;;;;;;0.24;100.00;99152.34;4994392;28;20129;-50
2023/03/09 01:27:13;;;;;;;26.73;14.65;;;;;;;0.22;100.00;99151.53;4994343;28;20034;-52
2023/03/09 01:29:39;;;;;;;21.02;14.10;;;;;;;0.54;100.00;99210.47;4994013;28;20034;-46
2023/03/09 01:32:04;;;;;;;25.52;15.13;;;;;;;0.24;100.00;99159.25;4993445;28;20045;-53
2023/03/09 01:34:29;;;;;;;22.17;14.13;;;;;;;0.50;100.00;99206.22;5008984;28;20038;-47
2023/03/09 01:36:55;;;;;;;22.98;14.25;;;;;;;0.51;100.00;99203.63;4994000;28;20046;-50
2023/03/09 01:39:20;;;;;;;20.15;13.63;;;;;;;0.35;100.00;99172.88;4993511;28;20038;-51
2023/03/09 01:41:45;;;;;;;23.92;14.63;;;;;;;0.07;100.00;99127.66;4993414;28;20133;-51
2023/03/09 01:44:12;;;;;;;20.00;13.63;;;;;;;0.41;100.00;99181.38;4993987;28;20038;-50
2023/03/09 01:46:44;;;;;;;18.48;12.45;;;;;;;-0.01;100.00;99125.22;5008098;28;20042;-53
2023/03/09 01:49:16;;;;;;;18.23;12.63;;;;;;;0.51;100.00;99221.75;4993692;28;20080;-50
2023/03/09 01:52:08;;;;;;;20.38;13.55;;;;;;;0.52;100.00;99218.28;4993721;28;20389;-49
2023/03/09 01:54:45;;;;;;;17.13;12.02;;;;;;;0.50;100.00;99235.56;4993749;28;20118;-49
2023/03/09 01:57:33;;;;;;;18.67;11.95;;;;;;;0.43;100.00;99210.69;5008801;28;20045;-53
2023/03/09 02:00:07;;;;;;;16.40;11.55;;;;;;;0.52;100.00;99239.00;4993505;28;20077;-51
2023/03/09 02:02:35;;;;;;;16.33;11.50;;;;;;;0.18;100.00;99165.38;5003362;28;20038;-50
2023/03/09 02:05:03;;;;;;;18.48;12.68;;;;;;;0.47;100.00;99206.28;5008503;28;20039;-52
2023/03/09 02:07:34;;;;;;;16.83;11.93;;;;;;;0.28;100.00;99173.84;4993410;28;20454;-51
2023/03/09 02:10:05;;;;;;;15.93;11.20;;;;;;;0.53;100.00;99224.28;5007993;28;20049;-48
2023/03/09 02:12:30;;;;;;;13.77;10.50;;;;;;;0.21;100.00;99173.09;4992278;28;20027;-53
2023/03/09 02:14:55;;;;;;;16.77;11.73;;;;;;;0.56;100.00;99235.47;4993114;28;20193;-49
2023/03/09 02:17:22;;;;;;;14.05;10.30;;;;;;;0.58;100.00;99222.50;5008473;28;20069;-49
2023/03/09 02:20:13;;;;;;;14.88;10.38;;;;;;;0.50;100.00;99201.91;4997842;28;20473;-50
2023/03/09 02:22:39;;;;;;;14.50;10.38;;;;;;;0.65;100.00;99215.47;5012678;28;20136;-50
2023/03/09 02:25:17;;;;;;;14.00;10.27;;;;;;;0.10;100.00;99137.94;5011288;28;20141;-53
2023/03/09 02:27:43;;;;;;;15.82;11.20;;;;;;;0.61;100.00;99243.16;5028009;28;20046;-49
2023/03/09 02:30:09;;;;;;;13.25;10.02;;;;;;;0.11;100.00;99168.97;5027888;28;20080;-53
2023/03/09 02:32:34;;;;;;;14.20;10.43;;;;;;;0.23;100.00;99192.06;5027570;28;20044;-51
2023/03/09 02:35:00;;;;;;;11.82;9.40;;;;;;;0.13;100.00;99169.81;5027534;28;20117;-52
2023/03/09 02:37:26;;;;;;;17.35;11.05;;;;;;;0.71;100.00;99272.31;5003328;28;20080;-53
2023/03/09 02:39:56;;;;;;;14.68;10.38;;;;;;;0.73;100.00;99255.88;4992803;28;20290;-53
2023/03/09 02:42:21;;;;;;;14.95;9.75;;;;;;;0.59;100.00;99208.66;4991507;28;20091;-48
2023/03/09 02:44:47;;;;;;;15.15;10.60;;;;;;;0.14;100.00;99142.19;4992606;28;20034;-52
2023/03/09 02:47:19;;;;;;;12.07;9.00;;;;;;;0.20;100.00;99173.13;4991463;28;20371;-51
2023/03/09 02:49:45;;;;;;;14.25;10.50;;;;;;;0.65;100.00;99259.47;4992656;28;20034;-51
2023/03/09 02:52:10;;;;;;;15.95;10.98;;;;;;;0.08;100.00;99165.59;4992351;28;20499;-49
2023/03/09 02:54:36;;;;;;;13.65;9.98;;;;;;;0.17;100.00;99178.38;4992207;28;20371;-52
2023/03/09 02:57:01;;;;;;;14.00;10.00;;;;;;;0.62;100.00;99249.16;4992502;28;20041;-49
2023/03/09 02:59:26;;;;;;;12.75;9.77;;;;;;;0.08;100.00;99155.25;4992439;28;20049;-51
2023/03/09 03:01:51;;;;;;;14.52;9.55;;;;;;;0.59;100.00;99250.09;4992231;28;20034;-50
2023/03/09 03:04:17;;;;;;;12.77;9.73;;;;;;;0.66;100.00;99258.59;4992283;28;20474;-49
2023/03/09 03:06:42;;;;;;;13.13;9.27;;;;;;;0.29;100.00;99198.88;4992102;28;20037;-53
2023/03/09 03:09:07;;;;;;;13.45;9.73;;;;;;;0.24;100.00;99193.75;4992439;28;20088;-52
2023/03/09 03:11:33;;;;;;;12.57;9.45;;;;;;;0.22;100.00;99181.72;4991535;28;20034;-50
2023/03/09 03:13:59;;;;;;;15.55;10.70;;;;;;;0.61;100.00;99252.66;4992400;28;20038;-49
2023/03/09 03:16:24;;;;;;;14.55;11.00;;;;;;;0.55;100.00;99261.41;4990980;28;20456;-48
2023/03/09 03:18:50;;;;;;;13.77;10.52;;;;;;;0.72;100.00;99302.53;4992280;28;20129;-52
2023/03/09 03:21:17;;;;;;;14.10;9.73;;;;;;;0.63;100.00;99269.88;4992041;28;20089;-52
2023/03/09 03:23:42;;;;;;;13.73;9.95;;;;;;;0.72;100.00;99274.03;4992277;28;20056;-49
2023/03/09 03:26:08;;;;;;;14.13;10.05;;;;;;;0.36;100.00;99214.25;4992302;28;20437;-51
2023/03/09 03:28:34;;;;;;;15.27;10.27;;;;;;;0.60;100.00;99263.88;4996210;28;20096;-49
2023/03/09 03:30:59;;;;;;;12.32;9.30;;;;;;;0.16;100.00;99213.72;5011196;28;20030;-53
2023/03/09 03:33:25;;;;;;;16.05;10.35;;;;;;;0.36;100.00;99254.78;5011757;28;20034;-51
2023/03/09 03:35:50;;;;;;;14.13;10.18;;;;;;;0.33;100.00;99234.16;5010384;28;20041;-52
2023/03/09 03:38:16;;;;;;;15.20;10.40;;;;;;;0.62;100.00;99275.91;5011585;28;20428;-47
2023/03/09 03:40:41;;;;;;;15.00;10.25;;;;;;;0.63;100.00;99277.63;5011573;28;20350;-49
2023/03/09 03:43:06;;;;;;;14.05;9.68;;;;;;;0.58;100.00;99276.88;5027046;28;20466;-50
2023/03/09 03:45:31;;;;;;;15.57;10.65;;;;;;;0.59;100.00;99283.75;5009302;28;20049;-51
2023/03/09 03:47:57;;;;;;;16.63;11.05;;;;;;;0.18;100.00;99216.28;5026674;28;20037;-50
2023/03/09 03:50:22;;;;;;;18.10;10.57;;;;;;;0.46;100.00;99272.75;5009948;28;20038;-53
2023/03/09 03:52:48;;;;;;;15.65;10.32;;;;;;;0.29;100.00;99259.22;5011374;28;20042;-53
2023/03/09 03:55:14;;;;;;;14.63;10.75;;;;;;;0.61;100.00;99330.34;5011305;28;20487;-49
2023/03/09 03:57:39;;;;;;;13.57;10.98;;;;;;;0.70;100.00;99353.50;5011570;28;20038;-53
2023/03/09 04:00:11;;;;;;;14.35;10.25;;;;;;;0.66;100.00;99347.50;5026899;28;20442;-50
2023/03/09 04:02:37;;;;;;;16.00;11.13;;;;;;;0.53;100.00;99326.13;5009268;28;20049;-48
2023/03/09 04:05:03;;;;;;;16.77;12.00;;;;;;;-0.56;100.00;99151.09;5011132;28;20105;-52
2023/03/09 04:07:28;;;;;;;17.33;11.80;;;;;;;0.82;100.00;99368.81;5011447;28;20121;-49
2023/03/09 04:09:54;;;;;;;18.42;11.93;;;;;;;0.64;100.00;99340.66;5011319;28;20038;-49
2023/03/09 04:12:19;;;;;;;18.77;10.98;;;;;;;0.76;100.00;99367.16;5011249;28;20042;-54
2023/03/09 04:14:45;;;;;;;16.13;10.70;;;;;;;0.30;100.00;99289.41;5011455;28;20042;-51
2023/03/09 04:17:10;;;;;;;16.90;11.73;;;;;;;0.78;100.00;99380.13;5011089;28;20050;-52
2023/03/09 04:19:36;;;;;;;17.05;11.13;;;;;;;0.38;100.00;99307.41;5004419;28;20126;-51
2023/03/09 04:22:01;;;;;;;17.52;11.35;;;;;;;0.25;100.00;99291.22;4991188;28;20050;-54
2023/03/09 04:24:26;;;;;;;17.20;12.10;;;;;;;0.78;100.00;99380.97;4991207;28;20030;-52
2023/03/09 04:26:52;;;;;;;15.55;11.65;;;;;;;0.38;100.00;99308.25;4991386;28;20450;-50
2023/03/09 04:29:18;;;;;;;16.33;11.23;;;;;;;0.26;100.00;99292.94;4990262;28;20058;-53
2023/03/09 04:31:43;;;;;;;15.93;10.77;;;;;;;0.32;100.00;99310.94;4973904;28;20035;-53
2023/03/09 04:34:10;;;;;;;17.08;11.15;;;;;;;0.34;100.00;99309.19;4990762;28;20099;-53
2023/03/09 04:36:36;;;;;;;16.35;11.90;;;;;;;0.79;100.00;99412.91;4991523;28;20038;-51
2023/03/09 04:39:01;;;;;;;17.85;11.27;;;;;;;0.62;100.00;99376.03;5006658;28;20041;-52
2023/03/09 04:41:27;;;;;;;19.77;11.63;;;;;;;0.63;100.00;99370.00;5006330;28;20045;-50
2023/03/09 04:43:52;;;;;;;16.15;11.68;;;;;;;0.76;100.00;99400.84;4993955;28;20030;-49
2023/03/09 04:46:17;;;;;;;19.23;12.63;;;;;;;0.75;100.00;99400.88;4994658;28;20161;-48
2023/03/09 04:48:43;;;;;;;18.92;12.07;;;;;;;0.34;100.00;99337.66;4994783;28;20077;-49
2023/03/09 04:51:08;;;;;;;19.02;12.55;;;;;;;0.78;100.00;99409.47;4994356;28;20046;-54
2023/03/09 04:53:34;;;;;;;18.60;11.60;;;;;;;0.77;100.00;99415.50;4994564;28;20038;-53
2023/03/09 04:55:59;;;;;;;20.33;13.07;;;;;;;0.34;100.00;99341.97;4994858;28;20041;-46
2023/03/09 04:58:24;;;;;;;20.58;12.50;;;;;;;0.34;100.00;99332.47;4994851;28;20042;-55
2023/03/09 05:00:50;;;;;;;20.13;13.10;;;;;;;0.81;100.00;99408.56;4994342;28;20140;-53
2023/03/09 05:03:15;;;;;;;19.27;13.00;;;;;;;0.44;100.00;99334.03;4994413;28;20030;-49
2023/03/09 05:05:40;;;;;;;21.52;13.77;;;;;;;0.72;100.00;99387.97;4994272;28;20034;-55
2023/03/09 05:08:05;;;;;;;22.58;14.32;;;;;;;0.35;100.00;99336.75;4994525;28;20420;-49
2023/03/09 05:10:31;;;;;;;19.23;12.63;;;;;;;0.81;100.00;99401.66;4993533;28;20072;-53
2023/03/09 05:12:56;;;;;;;20.73;13.82;;;;;;;0.80;100.00;99402.53;4994208;28;20030;-53
2023/03/09 05:15:21;;;;;;;22.40;14.80;;;;;;;0.35;100.00;99316.06;4994203;28;20034;-51
2023/03/09 05:17:47;;;;;;;25.10;14.25;;;;;;;0.34;100.00;99329.03;4992598;28;20092;-51
2023/03/09 05:20:14;;;;;;;21.23;14.23;;;;;;;0.80;100.00;99423.25;4994139;28;20088;-52
2023/03/09 05:22:39;;;;;;;25.10;14.95;;;;;;;0.79;100.00;99397.38;4994104;28;20057;-48
2023/03/09 05:25:05;;;;;;;23.70;14.93;;;;;;;0.73;100.00;99395.72;4993836;28;20030;-54
2023/03/09 05:27:31;;;;;;;23.95;16.08;;;;;;;0.44;100.00;99359.91;4994174;28;20031;-53
2023/03/09 05:29:57;;;;;;;23.92;15.65;;;;;;;0.43;100.00;99381.53;4994427;28;20133;-52
2023/03/09 05:32:22;;;;;;;24.98;16.13;;;;;;;0.70;100.00;99444.97;4993909;28;20064;-50
2023/03/09 05:34:48;;;;;;;26.58;16.42;;;;;;;0.76;100.00;99447.47;4992539;28;20034;-53
2023/03/09 05:37:13;;;;;;;25.88;16.15;;;;;;;0.38;100.00;99390.25;4993804;28;20061;-49
2023/03/09 05:39:39;;;;;;;27.70;17.77;;;;;;;0.27;100.00;99373.97;4993766;28;20046;-47
2023/03/09 05:42:05;;;;;;;26.08;17.42;;;;;;;0.74;100.00;99458.72;4993280;28;20069;-50
2023/03/09 05:44:31;;;;;;;26.45;17.42;;;;;;;0.71;100.00;99463.94;4993692;28;20035;-50
2023/03/09 05:46:57;;;;;;;25.40;17.00;;;;;;;0.29;100.00;99386.03;4992520;28;20033;-51
2023/03/09 05:49:23;;;;;;;26.65;16.98;;;;;;;0.21;100.00;99377.50;4993541;28;20040;-49
2023/03/09 05:51:48;;;;;;;29.13;18.45;;;;;;;0.73;100.00;99452.69;4993641;28;20113;-53
2023/03/09 05:54:14;;;;;;;25.25;17.50;;;;;;;0.24;100.00;99377.47;4993434;28;20034;-51
2023/03/09 05:56:39;;;;;;;30.40;19.83;;;;;;;0.70;100.00;99452.72;4992674;28;20100;-54
2023/03/09 05:59:04;;;;;;;25.77;17.73;;;;;;;0.72;100.00;99461.34;4993539;28;20121;-51
2023/03/09 06:01:30;;;;;;;30.75;18.88;;;;;;;0.75;100.00;99471.66;4994844;28;20393;-52
2023/03/09 06:03:56;;;;;;;29.30;18.30;;;;;;;0.74;100.00;99487.22;5004411;28;20410;-54
2023/03/09 06:06:22;;;;;;;32.78;19.58;;;;;;;0.74;100.00;99484.63;4992904;28;20050;-48
2023/03/09 06:08:48;;;;;;;30.05;17.98;;;;;;;0.73;100.00;99495.88;5025650;28;20041;-49
2023/03/09 06:11:14;;;;;;;28.52;18.50;;;;;;;-0.52;100.00;99275.94;5012825;28;20052;-50
2023/03/09 06:13:39;;;;;;;30.27;19.15;;;;;;;0.29;100.00;99411.06;5012712;28;20165;-51
2023/03/09 06:16:12;;;;;;;33.30;20.90;;;;;;;0.28;100.00;99409.34;5012682;28;20121;-49
2023/03/09 06:18:37;;;;;;;31.10;19.52;;;;;;;0.74;100.00;99489.81;4993834;28;20090;-52
2023/03/09 06:21:04;;;;;;;30.50;19.83;;;;;;;0.25;100.00;99411.97;5011431;28;20068;-51
2023/03/09 06:23:30;;;;;;;32.53;21.10;;;;;;;0.72;100.00;99512.28;5010674;28;20117;-51
2023/03/09 06:25:56;;;;;;;29.83;18.88;;;;;;;0.26;100.00;99427.50;5011112;28;20046;-49
2023/03/09 06:28:21;;;;;;;35.58;20.90;;;;;;;0.31;100.00;99443.81;5012300;28;20477;-50
2023/03/09 06:30:47;;;;;;;32.63;20.38;;;;;;;0.76;100.00;99519.16;4994327;28;20048;-51
2023/03/09 06:33:12;;;;;;;32.45;21.25;;;;;;;0.72;100.00;99510.56;5012556;28;20073;-51
2023/03/09 06:35:39;;;;;;;34.03;20.10;;;;;;;0.71;100.00;99511.44;4993382;28;20120;-54
2023/03/09 06:38:04;;;;;;;34.05;21.15;;;;;;;0.34;100.00;99450.69;4992508;28;20045;-47
2023/03/09 06:40:29;;;;;;;31.95;21.50;;;;;;;0.83;100.00;99544.06;4998411;28;20038;-49
2023/03/09 06:42:55;;;;;;;32.00;20.40;;;;;;;0.83;100.00;99541.47;5012253;28;20124;-53
2023/03/09 06:45:21;;;;;;;35.28;20.63;;;;;;;0.41;100.00;99462.63;5010886;28;20099;-50
2023/03/09 06:47:46;;;;;;;32.80;21.08;;;;;;;0.91;100.00;99542.22;5010551;28;20072;-52
2023/03/09 06:50:12;;;;;;;35.72;21.13;;;;;;;0.95;100.00;99549.09;5011807;28;20136;-49
2023/03/09 06:52:37;;;;;;;35.65;22.10;;;;;;;1.02;100.00;99561.09;4993497;28;20125;-52
2023/03/09 06:55:03;;;;;;;33.72;20.48;;;;;;;1.02;100.00;99555.91;4993074;28;20030;-54
2023/03/09 06:57:29;;;;;;;32.42;20.70;;;;;;;1.05;100.00;99566.22;5001747;28;20567;-52
2023/03/09 06:59:54;;;;;;;30.13;20.02;;;;;;;1.04;100.00;99567.97;4990207;28;20045;-50
2023/03/09 07:02:20;;;;;;;31.52;19.70;;;;;;;0.62;100.00;99484.78;4992310;28;20516;-47
2023/03/09 07:04:46;;;;;;;32.22;20.70;;;;;;;0.76;100.00;99513.97;5008248;28;20084;-52
2023/03/09 07:07:12;;;;;;;31.52;20.40;;;;;;;0.66;100.00;99492.53;5011071;28;20038;-51
2023/03/09 07:09:37;;;;;;;29.05;19.48;;;;;;;0.98;100.00;99542.13;4993534;28;20057;-47
2023/03/09 07:12:03;;;;;;;32.47;20.20;;;;;;;-0.27;100.00;99339.38;5011858;28;20045;-48
2023/03/09 07:14:28;;;;;;;31.15;20.27;;;;;;;1.17;100.00;99583.34;5009736;28;20042;-50
2023/03/09 07:16:55;;;;;;;34.17;20.85;;;;;;;1.08;100.00;99576.56;5011477;28;20192;-49
2023/03/09 07:19:20;;;;;;;32.63;20.75;;;;;;;1.27;100.00;99616.88;5010196;28;20044;-50
2023/03/09 07:21:46;;;;;;;34.75;21.67;;;;;;;1.29;100.00;99612.50;5011697;28;20042;-51
2023/03/09 07:24:11;;;;;;;32.42;20.08;;;;;;;1.32;100.00;99601.22;5010180;28;20054;-50
2023/03/09 07:26:37;;;;;;;31.15;21.08;;;;;;;1.28;100.00;99590.06;4992727;28;20505;-52
2023/03/09 07:29:02;;;;;;;33.50;21.38;;;;;;;0.95;100.00;99529.22;4999179;28;20056;-49
2023/03/09 07:31:29;;;;;;;29.90;20.80;;;;;;;1.40;100.00;99633.94;5011490;28;21037;-48
2023/03/09 07:33:55;;;;;;;35.03;21.83;;;;;;;0.91;100.00;99555.19;5003424;28;20101;-49
2023/03/09 07:36:20;;;;;;;32.28;20.58;;;;;;;0.97;100.00;99563.72;4994928;28;20134;-50
2023/03/09 07:38:47;;;;;;;31.35;21.42;;;;;;;0.02;100.00;99407.13;5005399;28;20125;-53
2023/03/09 07:41:12;;;;;;;30.98;20.67;;;;;;;1.53;100.00;99632.03;5009455;28;20089;-53
2023/03/09 07:43:43;;;;;;;31.02;21.10;;;;;;;1.62;100.00;99640.53;5009088;28;20038;-52
2023/03/09 07:46:09;;;;;;;;;;;;;;;1.74;100.00;99642.09;4994525;28;20045;-51
2023/03/09 07:48:37;;;;;;;28.77;18.92;;;;;;;1.37;100.00;99557.97;5024522;28;20370;-52
2023/03/09 07:51:03;;;;;;;30.52;19.95;;;;;;;1.44;100.00;99560.44;5023450;28;20037;-47
2023/03/09 07:53:32;;;;;;;29.25;20.38;;;;;;;1.62;100.00;99557.53;5011314;28;20037;-58
2023/03/09 07:56:00;;;;;;;27.88;19.83;;;;;;;2.06;100.00;99610.41;5011415;28;20469;-61
2023/03/09 07:58:26;;;;;;;29.08;20.40;;;;;;;2.22;100.00;99632.59;5009925;28;20128;-58
2023/03/09 08:00:51;;;;;;;29.45;20.15;;;;;;;2.19;100.00;99662.06;4990429;28;20122;-59
2023/03/09 08:03:16;;;;;;;30.90;20.23;;;;;;;2.23;100.00;99673.25;4991681;28;20161;-58
2023/03/09 08:05:42;;;;;;;28.50;19.58;;;;;;;1.87;100.00;99596.06;4992928;28;20077;-57
2023/03/09 08:08:08;;;;;;;26.90;18.60;;;;;;;2.32;100.00;99634.16;5018303;28;20062;-57
2023/03/09 08:10:33;;;;;;;26.45;19.20;;;;;;;2.01;100.00;99561.19;4990405;28;20038;-57
2023/03/09 08:12:59;;;;;;;24.15;18.02;;;;;;;2.22;100.00;99604.91;4990414;28;20151;-58
2023/03/09 08:15:24;;;;;;;27.17;20.02;;;;;;;2.22;100.00;99602.31;4999994;28;20042;-55
2023/03/09 08:17:50;;;;;;;25.70;19.38;;;;;;;2.09;100.00;99572.28;5012631;28;20034;-61
2023/03/09 08:20:15;;;;;;;24.48;18.70;;;;;;;2.59;100.00;99664.81;5012868;28;20129;-59
2023/03/09 08:22:41;;;;;;;25.02;18.60;;;;;;;2.18;100.00;99594.63;5028849;28;20033;-54
2023/03/09 08:25:07;;;;;;;24.83;18.20;;;;;;;2.18;100.00;99615.38;5009761;28;20499;-55
2023/03/09 08:27:40;;;;;;;26.33;19.15;;;;;;;2.48;100.00;99692.72;4994021;28;20038;-60
2023/03/09 08:30:06;;;;;;;25.17;19.20;;;;;;;2.46;100.00;99684.09;4993171;28;20113;-61
2023/03/09 08:32:31;;;;;;;26.05;19.02;;;;;;;2.15;100.00;99636.19;4993971;28;20149;-57
2023/03/09 08:34:57;;;;;;;24.83;18.75;;;;;;;2.08;100.00;99630.25;4994079;28;20035;-58
2023/03/09 08:37:23;;;;;;;27.45;19.50;;;;;;;2.57;100.00;99697.75;4993808;28;20128;-60
2023/03/09 08:39:51;;;;;;;26.38;19.15;;;;;;;2.09;100.00;99615.53;4994235;28;20043;-56
2023/03/09 08:42:17;;;;;;;29.70;19.85;;;;;;;2.26;100.00;99636.88;4994111;28;20049;-56
2023/03/09 08:44:42;;;;;;;26.20;19.35;;;;;;;2.29;100.00;99639.41;5008386;28;20042;-60
2023/03/09 08:47:07;;;;;;;25.45;17.88;;;;;;;2.80;100.00;99723.31;4993610;28;20038;-57
2023/03/09 08:49:33;;;;;;;27.23;20.15;;;;;;;2.77;100.00;99729.41;4994180;28;20035;-58
2023/03/09 08:51:58;;;;;;;23.13;17.52;;;;;;;2.47;100.00;99669.38;4993908;28;20198;-58
2023/03/09 08:54:23;;;;;;;26.33;18.90;;;;;;;2.40;100.00;99640.06;4993941;28;20096;-57
2023/03/09 08:56:49;;;;;;;25.10;18.45;;;;;;;2.93;100.00;99729.13;4993703;28;20077;-58
2023/03/09 08:59:14;;;;;;;22.38;16.65;;;;;;;2.49;100.00;99663.28;4993726;28;20115;-59
2023/03/09 09:01:39;;;;;;;23.08;17.20;;;;;;;2.91;100.00;99742.16;4993681;28;20066;-60
2023/03/09 09:04:05;;;;;;;26.45;18.90;;;;;;;2.96;100.00;99750.72;4992911;28;20038;-58
2023/03/09 09:06:30;;;;;;;23.75;18.98;;;;;;;2.93;100.00;99742.13;4993818;28;20422;-58
2023/03/09 09:08:56;;;;;;;24.95;18.27;;;;;;;2.74;100.00;99702.66;4993782;28;20093;-59
2023/03/09 09:11:21;;;;;;;24.88;18.55;;;;;;;2.84;100.00;99724.97;4993400;28;20042;-58
2023/03/09 09:13:47;;;;;;;28.90;19.33;;;;;;;2.88;100.00;99720.56;4993591;28;20041;-57
2023/03/09 09:16:13;;;;;;;27.45;19.92;;;;;;;2.81;100.00;99733.69;4992111;28;20026;-55
2023/03/09 09:18:39;;;;;;;26.35;19.23;;;;;;;2.67;100.00;99708.84;4992757;28;20038;-54
2023/03/09 09:21:09;;;;;;;25.00;18.77;;;;;;;2.71;100.00;99739.94;4992082;28;20081;-57
2023/03/09 09:23:35;;;;;;;24.92;18.77;;;;;;;2.76;100.00;99726.84;4992851;28;20133;-58
2023/03/09 09:26:01;;;;;;;21.98;16.85;;;;;;;2.93;100.00;99753.38;4993185;28;20552;-57
2023/03/09 09:28:26;;;;;;;23.48;17.25;;;;;;;2.87;100.00;99755.22;5007602;28;20057;-59
2023/03/09 09:30:56;;;;;;;24.02;18.30;;;;;;;2.58;100.00;99712.47;4991590;28;20071;-58
2023/03/09 09:33:22;;;;;;;25.65;18.52;;;;;;;2.48;100.00;99697.91;4992698;28;20085;-60
2023/03/09 09:35:58;;;;;;;24.10;18.10;;;;;;;2.84;100.00;99731.03;5008367;28;20053;-59
2023/03/09 09:38:24;;;;;;;25.77;18.00;;;;;;;3.16;100.00;99745.13;5007984;28;20078;-62
2023/03/09 09:40:50;;;;;;;23.63;17.85;;;;;;;3.16;100.00;99763.34;4993032;28;20038;-59
2023/03/09 09:43:15;;;;;;;24.25;18.42;;;;;;;3.11;100.00;99755.63;4991700;28;20050;-58
2023/03/09 09:45:43;;;;;;;22.70;17.15;;;;;;;3.03;100.00;99767.06;4993173;28;20050;-59
2023/03/09 09:48:15;;;;;;;22.80;17.88;;;;;;;2.55;100.00;99698.66;4992819;28;20036;-58
2023/03/09 09:50:46;;;;;;;25.85;19.25;;;;;;;3.06;100.00;99757.47;5006752;28;20085;-59
2023/03/09 09:53:48;;;;;;;25.92;19.40;;;;;;;3.15;100.00;99765.06;4992670;28;20461;-61
2023/03/09 09:56:18;;;;;;;24.23;18.27;;;;;;;2.98;100.00;99751.53;4987553;28;20050;-61
2023/03/09 09:58:50;;;;;;;23.23;17.85;;;;;;;3.03;100.00;99746.28;4992469;28;20125;-60
2023/03/09 10:01:27;;;;;;;25.77;19.23;;;;;;;2.86;100.00;99738.78;4991110;28;20034;-58
2023/03/09 10:03:53;;;;;;;26.40;19.05;;;;;;;2.96;100.00;99745.53;4992267;28;20199;-59
2023/03/09 10:06:23;;;;;;;24.52;18.63;;;;;;;2.96;100.00;99739.47;4990719;28;20038;-59
2023/03/09 10:09:26;;;;;;;24.95;18.75;;;;;;;3.07;100.00;99742.72;4990396;28;20399;-58
2023/03/09 10:12:02;;;;;;;26.35;19.65;;;;;;;2.81;100.00;99705.09;4990487;28;20519;-59
2023/03/09 10:14:27;;;;;;;26.58;19.70;;;;;;;3.17;100.00;99752.91;4991900;28;20054;-60
2023/03/09 10:17:10;;;;;;;25.08;18.60;;;;;;;3.20;100.00;99741.59;4991869;28;20215;-61
2023/03/09 10:19:38;;;;;;;27.70;20.15;;;;;;;2.71;100.00;99655.94;4990651;28;20366;-62
2023/03/09 10:22:14;;;;;;;27.15;19.80;;;;;;;3.23;100.00;99737.19;4992820;28;20040;-60
2023/03/09 10:24:44;;;;;;;26.63;19.58;;;;;;;3.14;100.00;99720.91;5010833;28;20057;-59
2023/03/09 10:27:35;;;;;;;25.73;18.83;;;;;;;3.30;100.00;99751.78;5009039;28;20025;-62
2023/03/09 10:30:10;;;;;;;28.38;20.02;;;;;;;3.34;100.00;99756.03;5009805;28;20055;-59
2023/03/09 10:32:44;;;;;;;26.92;20.05;;;;;;;3.44;100.00;99745.44;5010710;28;20033;-61
2023/03/09 10:35:21;;;;;;;30.48;21.58;;;;;;;3.16;100.00;99690.53;5011234;28;20459;-58
2023/03/09 10:37:50;;;;;;;28.75;20.00;;;;;;;3.54;100.00;99741.75;5011078;28;20069;-58
2023/03/09 10:40:25;;;;;;;27.45;20.50;;;;;;;3.62;100.00;99768.47;5010969;28;20041;-56
2023/03/09 10:42:51;;;;;;;26.00;19.95;;;;;;;3.60;100.00;99754.63;5010130;28;20092;-59
2023/03/09 10:45:23;;;;;;;27.08;20.17;;;;;;;3.59;100.00;99763.34;5007450;28;20457;-61
2023/03/09 10:47:49;;;;;;;26.40;20.73;;;;;;;3.56;100.00;99768.63;5009622;28;20466;-58
2023/03/09 10:50:15;;;;;;;27.30;20.17;;;;;;;3.48;100.00;99766.16;5010850;28;20052;-61
2023/03/09 10:52:40;;;;;;;28.60;20.30;;;;;;;3.01;100.00;99690.84;5009647;28;20420;-60
2023/03/09 10:55:34;;;;;;;26.45;19.92;;;;;;;3.56;100.00;99779.03;5011274;28;20113;-60
2023/03/09 10:58:21;;;;;;;24.77;18.70;;;;;;;3.71;100.00;99778.66;5008962;28;20141;-59
2023/03/09 11:01:00;;;;;;;28.75;21.20;;;;;;;3.64;100.00;99780.56;5010477;28;20432;-58
2023/03/09 11:03:31;;;;;;;27.05;21.17;;;;;;;3.61;100.00;99778.03;4986740;28;20044;-60
2023/03/09 11:06:09;;;;;;;27.98;20.42;;;;;;;3.55;100.00;99759.09;5007328;28;20116;-61
2023/03/09 11:08:34;;;;;;;28.75;21.20;;;;;;;3.21;100.00;99699.94;5000886;28;20128;-56
2023/03/09 11:11:09;;;;;;;29.00;21.02;;;;;;;3.46;100.00;99751.47;5005312;28;20133;-59
2023/03/09 11:13:34;;;;;;;27.70;20.45;;;;;;;3.23;100.00;99720.75;4992002;28;20104;-61
2023/03/09 11:16:21;;;;;;;26.88;20.02;;;;;;;3.31;100.00;99782.09;4991909;28;20038;-59
2023/03/09 11:18:48;;;;;;;30.00;21.00;;;;;;;3.26;100.00;99764.88;4990943;28;20038;-61